Bird City, KS

9:21 AM CST on January 25, 2015 (GMT -0600)
KHMYKSBI2 | Change Station
CLOSE
Current Station
Personal Weather Station
Location: Bird City, KS
Elevation: 3524 ft
Nearby Weather Stations

Elev 3524 ft 39.76 °N, 101.60 °W | Updated 31 seconds ago

Clear
Clear
36.9 °F
Feels Like 31 °F
N
7.0
Wind Variable Wind from NW
Gusts 11.0 mph

Today
High -- | Low -- °F
--% Chance of Precip.
Yesterday
High -- | Low -- °F
Precip. -- in
8:00 AM 5:57 PM
Waxing Crescent, 33% visible
Pressure 30.09 in
Visibility 10.0 miles
Clouds Clear
Windchill 31 °F
Dew Point 29 °F
Humidity 72%
Rainfall 0.00 in
Snow Depth Not available.
UV 0.0 out of 12
Pollen 2.20 out of 12
Air Quality Not available.
Flu Activity Not available.
METAR KSYF 251455Z AUTO 32011KT 10SM CLR 04/M04 A3009 RMK AO2 T00391038

More Conditions Fewer Conditions

Pressure 30.09 in
Visibility 10.0 miles
Clouds Clear
Windchill 31 °F
Dew Point 29 °F
Humidity 72%
Rainfall 0.00 in
Snow Depth Not available.
UV 0.0 out of 12
Pollen 2.20 out of 12
Air Quality Not available.
Flu Activity Not available.
METAR KSYF 251455Z AUTO 32011KT 10SM CLR 04/M04 A3009 RMK AO2 T00391038

More Conditions Fewer Conditions

10-Day Weather Forecast

Almanac

Astronomy

Jan. 25, 2015 Rise Set
Actual Time
Civil Twilight
Nautical Twilight
Astronomical Twilight
Moon
Length of Visible Light
Length of Day
Tomorrow will be .
, % of the Moon is Illuminated

Today's Extremes

State Highs State Lows

Community

WunderPhotos

Upload Photos

1,789,912 photos uploaded!

WunderBlogs® & News

Nearby

Air Quality

  Air Quality AQ Index Pollutant
Not available.

Snow Depth

Station Depth Elevation

Earthquake Activity

City Distance Mag. Time & Date
Minimum magnitude displayed is 2.5.

Coastal Water Temperatures

Place Temperature

Nearby Weather Stations